createdAt,value
2018-05-15T00:00:03.299Z,983.75
2018-05-15T00:01:03.465Z,983.73
2018-05-15T00:02:03.645Z,983.68
2018-05-15T00:03:03.819Z,983.69
2018-05-15T00:04:03.988Z,983.69
2018-05-15T00:05:04.885Z,983.68
2018-05-15T00:06:04.324Z,983.64
2018-05-15T00:07:04.502Z,983.65
2018-05-15T00:08:04.672Z,983.65
2018-05-15T00:09:04.857Z,983.69
2018-05-15T00:10:05.029Z,983.67
2018-05-15T00:11:05.201Z,983.67
2018-05-15T00:12:05.376Z,983.71
2018-05-15T00:13:05.549Z,983.69
2018-05-15T00:14:05.719Z,983.70
2018-05-15T00:15:05.889Z,983.69
2018-05-15T00:16:06.065Z,983.71
2018-05-15T00:17:06.240Z,983.70
2018-05-15T00:18:06.409Z,983.77
2018-05-15T00:19:06.587Z,983.75
2018-05-15T00:20:06.758Z,983.77
2018-05-15T00:21:06.933Z,983.70
2018-05-15T00:22:07.105Z,983.78
2018-05-15T00:23:07.273Z,983.79
2018-05-15T00:24:07.445Z,983.79
2018-05-15T00:25:07.617Z,983.80
2018-05-15T00:26:07.785Z,983.78
2018-05-15T00:27:07.956Z,983.82
2018-05-15T00:28:08.186Z,983.83
2018-05-15T00:29:08.323Z,983.79
2018-05-15T00:30:08.495Z,983.79
2018-05-15T00:31:08.702Z,983.77
2018-05-15T00:32:08.829Z,983.78
2018-05-15T00:33:09.002Z,983.81
2018-05-15T00:34:09.200Z,983.82
2018-05-15T00:35:09.357Z,983.78
2018-05-15T00:36:09.526Z,983.78
2018-05-15T00:37:09.705Z,983.79
2018-05-15T00:38:09.874Z,983.79
2018-05-15T00:39:10.042Z,983.80
2018-05-15T00:40:10.211Z,983.78
2018-05-15T00:41:10.375Z,983.78
2018-05-15T00:42:10.547Z,983.75
2018-05-15T00:43:10.722Z,983.81
2018-05-15T00:44:10.902Z,983.79
2018-05-15T00:45:11.058Z,983.79
2018-05-15T00:46:11.226Z,983.77
2018-05-15T00:47:11.398Z,983.83
2018-05-15T00:48:11.569Z,983.74
2018-05-15T00:49:11.739Z,983.77
2018-05-15T00:50:11.907Z,983.82
2018-05-15T00:51:12.078Z,983.82
2018-05-15T00:52:12.247Z,983.86
2018-05-15T00:53:12.412Z,983.82
2018-05-15T00:54:12.582Z,983.84
2018-05-15T00:55:12.751Z,983.83
2018-05-15T00:56:12.928Z,983.80
2018-05-15T00:57:13.098Z,983.77
2018-05-15T00:58:13.260Z,983.78
2018-05-15T00:59:13.440Z,983.69
2018-05-15T01:00:13.609Z,983.65
2018-05-15T01:01:13.777Z,983.64
2018-05-15T01:02:13.948Z,983.67
2018-05-15T01:03:14.115Z,983.66
2018-05-15T01:04:14.291Z,983.54
2018-05-15T01:05:14.456Z,983.58
2018-05-15T01:06:14.628Z,983.60
2018-05-15T01:07:14.794Z,983.59
2018-05-15T01:08:14.964Z,983.61
2018-05-15T01:09:15.144Z,983.61
2018-05-15T01:10:15.309Z,983.64
2018-05-15T01:11:15.475Z,983.63
2018-05-15T01:12:15.647Z,983.65
2018-05-15T01:13:15.814Z,983.66
2018-05-15T01:14:16.031Z,983.66
2018-05-15T01:15:16.147Z,983.66
2018-05-15T01:16:16.320Z,983.67
2018-05-15T01:17:16.486Z,983.70
2018-05-15T01:18:16.657Z,983.70
2018-05-15T01:19:16.828Z,983.70
2018-05-15T01:20:16.994Z,983.69
2018-05-15T01:21:17.172Z,983.73
2018-05-15T01:22:17.336Z,983.75
2018-05-15T01:23:17.512Z,983.77
2018-05-15T01:24:17.677Z,983.78
2018-05-15T01:25:17.851Z,983.81
2018-05-15T01:26:18.023Z,983.81
2018-05-15T01:27:18.185Z,983.85
2018-05-15T01:28:18.355Z,983.89
2018-05-15T01:29:18.529Z,983.89
2018-05-15T01:30:18.695Z,983.89
2018-05-15T01:31:18.877Z,983.91
2018-05-15T01:32:19.051Z,983.90
2018-05-15T01:33:19.216Z,983.93
2018-05-15T01:34:19.379Z,983.92
2018-05-15T01:35:19.548Z,983.95
2018-05-15T01:36:19.723Z,983.93
2018-05-15T01:37:19.890Z,983.97
2018-05-15T01:38:20.084Z,983.90
2018-05-15T01:39:20.224Z,983.93
2018-05-15T01:40:20.906Z,983.95
2018-05-15T01:41:21.402Z,983.86
2018-05-15T01:42:20.814Z,983.90
2018-05-15T01:43:21.280Z,983.92
2018-05-15T01:44:21.613Z,983.94
2018-05-15T01:45:21.760Z,983.93
2018-05-15T01:46:21.917Z,983.94
2018-05-15T01:47:22.068Z,983.91
2018-05-15T01:48:22.292Z,983.96
2018-05-15T01:49:22.424Z,983.96
2018-05-15T01:50:22.571Z,983.94
2018-05-15T01:51:22.752Z,983.95
2018-05-15T01:52:22.509Z,983.90
2018-05-15T01:53:22.675Z,983.92
2018-05-15T01:54:22.846Z,983.98
2018-05-15T01:55:23.015Z,983.93
2018-05-15T01:56:23.190Z,983.90
2018-05-15T01:57:23.359Z,983.95
2018-05-15T01:58:23.527Z,983.94
2018-05-15T01:59:23.712Z,983.93
2018-05-15T02:00:24.422Z,983.90
2018-05-15T02:01:24.102Z,983.92
2018-05-15T02:02:24.909Z,983.89
2018-05-15T02:03:24.436Z,983.93
2018-05-15T02:04:24.625Z,983.96
2018-05-15T02:05:24.798Z,983.98
2018-05-15T02:06:24.974Z,983.98
2018-05-15T02:07:25.129Z,983.97
2018-05-15T02:08:25.296Z,983.94
2018-05-15T02:09:25.464Z,983.95
2018-05-15T02:10:25.638Z,983.94
2018-05-15T02:11:25.804Z,983.95
2018-05-15T02:12:25.982Z,983.98
2018-05-15T02:13:26.149Z,983.95
2018-05-15T02:14:26.312Z,983.96
2018-05-15T02:15:26.483Z,984.02
2018-05-15T02:16:26.653Z,984.04
2018-05-15T02:17:26.822Z,983.98
2018-05-15T02:18:27.064Z,984.00
2018-05-15T02:19:27.115Z,984.02
2018-05-15T02:20:27.284Z,984.02
2018-05-15T02:21:27.455Z,984.01
2018-05-15T02:22:27.622Z,983.98
2018-05-15T02:23:27.790Z,984.03
2018-05-15T02:24:27.960Z,983.98
2018-05-15T02:25:28.125Z,984.02
2018-05-15T02:26:28.299Z,984.04
2018-05-15T02:27:28.465Z,984.09
2018-05-15T02:28:28.629Z,984.06
2018-05-15T02:29:28.787Z,984.04
2018-05-15T02:30:29.074Z,984.04
2018-05-15T02:31:29.139Z,984.02
2018-05-15T02:32:29.304Z,984.04
2018-05-15T02:33:29.471Z,984.04
2018-05-15T02:34:29.644Z,984.04
2018-05-15T02:35:29.809Z,984.02
2018-05-15T02:36:29.999Z,984.01
2018-05-15T02:37:30.145Z,984.03
2018-05-15T02:38:30.316Z,984.05
2018-05-15T02:39:30.485Z,983.98
2018-05-15T02:40:30.649Z,984.02
2018-05-15T02:41:30.847Z,984.05
2018-05-15T02:42:31.012Z,984.05
2018-05-15T02:43:31.178Z,984.10
2018-05-15T02:44:31.344Z,984.06
2018-05-15T02:45:31.514Z,984.05
2018-05-15T02:46:31.699Z,984.05
2018-05-15T02:47:31.856Z,984.04
2018-05-15T02:48:32.020Z,984.02
2018-05-15T02:49:32.189Z,983.99
2018-05-15T02:50:32.356Z,984.01
2018-05-15T02:51:32.529Z,984.00
2018-05-15T02:52:32.696Z,983.99
2018-05-15T02:53:32.887Z,984.01
2018-05-15T02:54:33.032Z,984.01
2018-05-15T02:55:33.209Z,983.99
2018-05-15T02:56:33.377Z,984.06
2018-05-15T02:57:33.545Z,984.05
2018-05-15T02:58:33.726Z,984.09
2018-05-15T02:59:33.881Z,984.06
2018-05-15T03:00:34.049Z,984.07
2018-05-15T03:01:34.227Z,984.01
2018-05-15T03:02:34.394Z,984.03
2018-05-15T03:03:34.571Z,983.98
2018-05-15T03:04:34.734Z,983.99
2018-05-15T03:05:34.902Z,983.98
2018-05-15T03:06:35.088Z,983.96
2018-05-15T03:07:35.256Z,983.95
2018-05-15T03:08:35.421Z,983.99
2018-05-15T03:09:35.589Z,984.02
2018-05-15T03:10:35.760Z,983.99
2018-05-15T03:11:35.983Z,983.99
2018-05-15T03:12:36.095Z,984.01
2018-05-15T03:13:36.267Z,983.98
2018-05-15T03:14:36.479Z,984.01
2018-05-15T03:15:36.618Z,984.00
2018-05-15T03:16:36.784Z,983.99
2018-05-15T03:17:36.957Z,983.98
2018-05-15T03:18:37.140Z,984.00
2018-05-15T03:19:37.298Z,984.02
2018-05-15T03:20:37.468Z,983.98
2018-05-15T03:21:37.636Z,984.00
2018-05-15T03:22:37.799Z,984.01
2018-05-15T03:23:37.979Z,984.07
2018-05-15T03:24:38.151Z,984.05
2018-05-15T03:25:38.322Z,984.10
2018-05-15T03:26:38.489Z,984.14
2018-05-15T03:27:38.662Z,984.17
2018-05-15T03:28:38.832Z,984.18
2018-05-15T03:29:38.996Z,984.21
2018-05-15T03:30:39.167Z,984.19
2018-05-15T03:31:39.336Z,984.25
2018-05-15T03:32:39.508Z,984.24
2018-05-15T03:33:39.678Z,984.26
2018-05-15T03:34:39.850Z,984.23
2018-05-15T03:35:40.017Z,984.27
2018-05-15T03:36:40.185Z,984.22
2018-05-15T03:37:40.351Z,984.20
2018-05-15T03:38:40.531Z,984.17
2018-05-15T03:39:40.701Z,984.19
2018-05-15T03:40:40.869Z,984.23
2018-05-15T03:41:41.037Z,984.22
2018-05-15T03:42:41.202Z,984.22
2018-05-15T03:43:41.374Z,984.22
2018-05-15T03:44:41.547Z,984.24
2018-05-15T03:45:41.717Z,984.25
2018-05-15T03:46:41.882Z,984.21
2018-05-15T03:47:42.050Z,984.21
2018-05-15T03:48:42.220Z,984.16
2018-05-15T03:49:42.390Z,984.16
2018-05-15T03:50:42.557Z,984.15
2018-05-15T03:51:42.730Z,984.18
2018-05-15T03:52:42.898Z,984.11
2018-05-15T03:53:43.093Z,984.16
2018-05-15T03:54:43.259Z,984.15
2018-05-15T03:55:43.427Z,984.13
2018-05-15T03:56:43.598Z,984.14
2018-05-15T03:57:43.814Z,984.15
2018-05-15T03:58:43.987Z,984.17
2018-05-15T03:59:44.151Z,984.18
2018-05-15T04:00:44.319Z,984.20
2018-05-15T04:01:44.497Z,984.23
2018-05-15T04:02:44.666Z,984.21
2018-05-15T04:03:44.838Z,984.27
2018-05-15T04:04:45.009Z,984.25
2018-05-15T04:05:45.178Z,984.21
2018-05-15T04:06:45.347Z,984.28
2018-05-15T04:07:45.517Z,984.29
2018-05-15T04:08:45.792Z,984.33
2018-05-15T04:09:45.865Z,984.34
2018-05-15T04:10:46.074Z,984.32
2018-05-15T04:11:46.198Z,984.36
2018-05-15T04:12:46.368Z,984.34
2018-05-15T04:13:46.534Z,984.35
2018-05-15T04:14:46.708Z,984.37
2018-05-15T04:15:46.881Z,984.35
2018-05-15T04:16:47.049Z,984.37
2018-05-15T04:17:47.226Z,984.33
2018-05-15T04:18:47.377Z,984.32
2018-05-15T04:19:47.542Z,984.36
2018-05-15T04:20:47.702Z,984.41
2018-05-15T04:21:47.878Z,984.46
2018-05-15T04:22:48.051Z,984.42
2018-05-15T04:23:48.226Z,984.46
2018-05-15T04:24:48.381Z,984.47
2018-05-15T04:25:48.566Z,984.46
2018-05-15T04:26:48.739Z,984.48
2018-05-15T04:27:48.909Z,984.49
2018-05-15T04:28:49.102Z,984.50
2018-05-15T04:29:49.291Z,984.54
2018-05-15T04:30:49.446Z,984.55
2018-05-15T04:31:49.611Z,984.56
2018-05-15T04:32:49.778Z,984.55
2018-05-15T04:33:49.946Z,984.54
2018-05-15T04:34:50.118Z,984.55
2018-05-15T04:35:50.282Z,984.54
2018-05-15T04:36:50.452Z,984.54
2018-05-15T04:37:50.618Z,984.59
2018-05-15T04:38:50.790Z,984.62
2018-05-15T04:39:50.966Z,984.60
2018-05-15T04:40:51.145Z,984.63
2018-05-15T04:41:51.317Z,984.65
2018-05-15T04:42:51.485Z,984.67
2018-05-15T04:43:51.819Z,984.70
2018-05-15T04:44:51.829Z,984.74
2018-05-15T04:45:51.988Z,984.75
2018-05-15T04:46:52.161Z,984.78
2018-05-15T04:47:52.330Z,984.77
2018-05-15T04:48:52.500Z,984.82
2018-05-15T04:49:52.669Z,984.79
2018-05-15T04:50:52.841Z,984.80
2018-05-15T04:51:53.008Z,984.81
2018-05-15T04:52:53.178Z,984.84
2018-05-15T04:53:53.351Z,984.86
2018-05-15T04:54:53.517Z,984.88
2018-05-15T04:55:53.683Z,984.93
2018-05-15T04:56:53.860Z,984.92
2018-05-15T04:57:54.041Z,984.88
2018-05-15T04:58:54.211Z,984.90
2018-05-15T04:59:54.381Z,984.91
2018-05-15T05:00:54.558Z,984.92
2018-05-15T05:01:54.735Z,984.92
2018-05-15T05:02:54.907Z,984.90
2018-05-15T05:03:55.078Z,984.93
2018-05-15T05:04:55.239Z,984.92
2018-05-15T05:05:55.408Z,984.93
2018-05-15T05:06:55.591Z,984.94
2018-05-15T05:07:55.739Z,984.91
2018-05-15T05:08:55.912Z,984.89
2018-05-15T05:09:56.127Z,984.91
2018-05-15T05:10:56.302Z,984.90
2018-05-15T05:11:56.465Z,984.94
2018-05-15T05:12:56.630Z,984.99
2018-05-15T05:13:56.799Z,985.05
2018-05-15T05:14:56.967Z,985.09
2018-05-15T05:15:57.945Z,985.06
2018-05-15T05:16:57.365Z,985.11
2018-05-15T05:17:57.530Z,985.10
2018-05-15T05:18:57.711Z,985.16
2018-05-15T05:19:57.880Z,985.10
2018-05-15T05:20:58.108Z,985.13
2018-05-15T05:21:58.222Z,985.10
2018-05-15T05:22:58.387Z,985.16
2018-05-15T05:23:58.570Z,985.16
2018-05-15T05:24:58.741Z,985.18
2018-05-15T05:25:58.910Z,985.18
2018-05-15T05:26:59.081Z,985.18
2018-05-15T05:27:59.249Z,985.18
2018-05-15T05:28:59.431Z,985.22
2018-05-15T05:29:59.601Z,985.22
2018-05-15T05:30:59.789Z,985.23
2018-05-15T05:31:59.952Z,985.28
2018-05-15T05:33:00.110Z,985.26
2018-05-15T05:34:00.945Z,985.22
2018-05-15T05:35:00.466Z,985.27
2018-05-15T05:36:00.631Z,985.27
2018-05-15T05:37:00.801Z,985.29
2018-05-15T05:38:00.971Z,985.26
2018-05-15T05:39:01.147Z,985.30
2018-05-15T05:40:01.406Z,985.31
2018-05-15T05:41:01.491Z,985.35
2018-05-15T05:42:01.659Z,985.34
2018-05-15T05:43:02.529Z,985.36
2018-05-15T05:44:01.949Z,985.37
2018-05-15T05:45:02.129Z,985.39
2018-05-15T05:46:02.285Z,985.41
2018-05-15T05:47:02.465Z,985.42
2018-05-15T05:48:02.624Z,985.38
2018-05-15T05:49:02.813Z,985.40
2018-05-15T05:50:02.981Z,985.46
2018-05-15T05:51:03.172Z,985.42
2018-05-15T05:52:03.354Z,985.43
2018-05-15T05:53:03.500Z,985.44
2018-05-15T05:54:03.669Z,985.44
2018-05-15T05:55:03.839Z,985.47
2018-05-15T05:56:04.012Z,985.47
2018-05-15T05:57:04.184Z,985.45
2018-05-15T05:58:04.401Z,985.48
2018-05-15T05:59:04.573Z,985.46
2018-05-15T06:00:05.535Z,985.51
2018-05-15T06:01:04.956Z,985.51
2018-05-15T06:02:05.124Z,985.55
2018-05-15T06:03:05.298Z,985.57
2018-05-15T06:04:06.030Z,985.50
2018-05-15T06:05:05.575Z,985.53
2018-05-15T06:06:05.744Z,985.48
2018-05-15T06:07:06.001Z,985.55
2018-05-15T06:08:06.129Z,985.53
2018-05-15T06:09:06.301Z,985.59
2018-05-15T06:10:06.469Z,985.52
2018-05-15T06:11:06.640Z,985.54
2018-05-15T06:12:06.805Z,985.57
2018-05-15T06:13:06.983Z,985.57
2018-05-15T06:14:07.153Z,985.59
2018-05-15T06:15:07.323Z,985.51
2018-05-15T06:16:07.498Z,985.56
2018-05-15T06:17:07.669Z,985.59
2018-05-15T06:18:07.843Z,985.62
2018-05-15T06:19:08.537Z,985.63
2018-05-15T06:20:08.209Z,985.67
2018-05-15T06:21:08.393Z,985.63
2018-05-15T06:22:08.543Z,985.66
2018-05-15T06:23:08.717Z,985.67
2018-05-15T06:24:08.885Z,985.65
2018-05-15T06:25:09.057Z,985.65
2018-05-15T06:26:09.226Z,985.69
2018-05-15T06:27:09.410Z,985.67
2018-05-15T06:28:09.563Z,985.69
2018-05-15T06:29:09.736Z,985.64
2018-05-15T06:30:09.909Z,985.62
2018-05-15T06:31:10.097Z,985.67
2018-05-15T06:32:10.257Z,985.65
2018-05-15T06:33:10.426Z,985.68
2018-05-15T06:34:10.615Z,985.65
2018-05-15T06:35:10.783Z,985.69
2018-05-15T06:36:10.961Z,985.75
2018-05-15T06:37:11.129Z,985.76
2018-05-15T06:38:11.298Z,985.74
2018-05-15T06:39:11.517Z,985.76
2018-05-15T06:40:11.640Z,985.77
2018-05-15T06:41:11.807Z,985.81
2018-05-15T06:42:11.979Z,985.87
2018-05-15T06:43:12.149Z,985.86
2018-05-15T06:44:12.319Z,985.85
2018-05-15T06:45:12.493Z,985.80
2018-05-15T06:46:12.660Z,985.83
2018-05-15T06:47:12.829Z,985.84
2018-05-15T06:48:13.000Z,985.81
2018-05-15T06:49:13.178Z,985.84
2018-05-15T06:50:13.345Z,985.84
2018-05-15T06:51:13.523Z,985.83
2018-05-15T06:52:13.701Z,985.83
2018-05-15T06:53:13.875Z,985.81
2018-05-15T06:54:14.045Z,985.81
2018-05-15T06:55:14.229Z,985.84
2018-05-15T06:56:14.415Z,985.88
2018-05-15T06:57:14.581Z,985.85
2018-05-15T06:58:14.756Z,985.83
2018-05-15T06:59:14.930Z,985.86
2018-05-15T07:00:15.097Z,985.84
2018-05-15T07:01:15.277Z,985.87
2018-05-15T07:02:15.467Z,985.84
2018-05-15T07:03:15.623Z,985.84
2018-05-15T07:04:15.797Z,985.84
2018-05-15T07:05:15.967Z,985.76
2018-05-15T07:06:16.141Z,985.80
2018-05-15T07:07:16.306Z,985.77
2018-05-15T07:08:16.518Z,985.76
2018-05-15T07:09:16.689Z,985.71
2018-05-15T07:10:16.860Z,985.69
2018-05-15T07:11:17.032Z,985.68
2018-05-15T07:12:17.218Z,985.69
2018-05-15T07:13:17.386Z,985.69
2018-05-15T07:14:17.555Z,985.66
2018-05-15T07:15:17.732Z,985.66
2018-05-15T07:16:17.901Z,985.68
2018-05-15T07:17:18.074Z,985.67
2018-05-15T07:18:18.249Z,985.72
2018-05-15T07:19:18.424Z,985.68
2018-05-15T07:20:18.607Z,985.73
2018-05-15T07:21:18.772Z,985.71
2018-05-15T07:22:18.950Z,985.72
2018-05-15T07:23:19.121Z,985.74
2018-05-15T07:24:19.292Z,985.77
2018-05-15T07:25:19.484Z,985.83
2018-05-15T07:26:19.631Z,985.75
2018-05-15T07:27:19.854Z,985.77
2018-05-15T07:28:20.004Z,985.75
2018-05-15T07:29:20.181Z,985.74
2018-05-15T07:30:20.426Z,985.77
2018-05-15T07:31:21.485Z,985.77
2018-05-15T07:32:20.759Z,985.80
2018-05-15T07:33:21.009Z,985.84
2018-05-15T07:34:21.183Z,985.80
2018-05-15T07:35:21.400Z,985.75
2018-05-15T07:36:21.542Z,985.81
2018-05-15T07:37:21.710Z,985.85
2018-05-15T07:38:21.885Z,985.75
2018-05-15T07:39:22.062Z,985.72
2018-05-15T07:40:23.067Z,985.76
2018-05-15T07:41:22.343Z,985.80
2018-05-15T07:42:22.517Z,985.85
2018-05-15T07:43:22.688Z,985.82
2018-05-15T07:44:22.863Z,985.82
2018-05-15T07:45:23.031Z,985.86
2018-05-15T07:46:23.207Z,985.91
2018-05-15T07:47:23.377Z,985.92
2018-05-15T07:48:23.546Z,985.93
2018-05-15T07:49:23.727Z,985.88
2018-05-15T07:50:23.909Z,985.93
2018-05-15T07:51:24.107Z,985.93
2018-05-15T07:52:24.287Z,985.87
2018-05-15T07:53:24.465Z,985.85
2018-05-15T07:54:24.638Z,985.87
2018-05-15T07:55:24.815Z,985.91
2018-05-15T07:56:24.992Z,985.93
2018-05-15T07:57:25.165Z,985.95
2018-05-15T07:58:25.344Z,985.93
2018-05-15T07:59:25.524Z,985.97
2018-05-15T08:00:26.554Z,985.97
2018-05-15T08:01:25.856Z,985.99
2018-05-15T08:02:26.032Z,985.98
2018-05-15T08:03:26.209Z,985.98
2018-05-15T08:04:26.998Z,985.99
2018-05-15T08:05:26.559Z,986.01
2018-05-15T08:06:26.727Z,986.09
2018-05-15T08:07:26.922Z,986.08
2018-05-15T08:08:27.068Z,986.09
2018-05-15T08:09:27.981Z,986.11
2018-05-15T08:10:27.465Z,986.22
2018-05-15T08:11:27.659Z,986.17
2018-05-15T08:12:27.829Z,986.21
2018-05-15T08:13:28.004Z,986.16
2018-05-15T08:14:28.183Z,986.22
2018-05-15T08:15:28.359Z,986.21
2018-05-15T08:16:28.536Z,986.24
2018-05-15T08:17:28.712Z,986.21
2018-05-15T08:18:28.889Z,986.22
2018-05-15T08:19:29.065Z,986.18
2018-05-15T08:20:29.243Z,986.27
2018-05-15T08:21:29.421Z,986.17
2018-05-15T08:22:29.630Z,986.21
2018-05-15T08:23:29.762Z,986.21
2018-05-15T08:24:29.938Z,986.24
2018-05-15T08:25:30.111Z,986.23
2018-05-15T08:26:30.355Z,986.28
2018-05-15T08:27:30.450Z,986.18
2018-05-15T08:28:30.637Z,986.24
2018-05-15T08:29:30.793Z,986.24
2018-05-15T08:30:31.068Z,986.25
2018-05-15T08:31:31.116Z,986.24
2018-05-15T08:32:31.286Z,986.25
2018-05-15T08:33:31.990Z,986.25
2018-05-15T08:34:31.624Z,986.31
2018-05-15T08:35:31.799Z,986.23
2018-05-15T08:36:31.972Z,986.25
2018-05-15T08:37:32.246Z,986.29
2018-05-15T08:38:32.327Z,986.30
2018-05-15T08:39:32.504Z,986.31
2018-05-15T08:40:32.678Z,986.33
2018-05-15T08:41:32.852Z,986.34
2018-05-15T08:42:33.033Z,986.38
2018-05-15T08:43:33.218Z,986.40
2018-05-15T08:44:33.393Z,986.39
2018-05-15T08:45:33.562Z,986.41
2018-05-15T08:46:33.755Z,986.40
2018-05-15T08:47:33.912Z,986.33
2018-05-15T08:48:34.076Z,986.30
2018-05-15T08:49:34.248Z,986.30
2018-05-15T08:50:34.429Z,986.32
2018-05-15T08:51:34.686Z,986.33
2018-05-15T08:52:34.781Z,986.36
2018-05-15T08:53:34.959Z,986.37
2018-05-15T08:54:35.143Z,986.40
2018-05-15T08:55:35.316Z,986.37
2018-05-15T08:56:35.495Z,986.44
2018-05-15T08:57:35.672Z,986.48
2018-05-15T08:58:35.849Z,986.50
2018-05-15T08:59:36.025Z,986.48
2018-05-15T09:00:36.201Z,986.41
2018-05-15T09:01:36.376Z,986.44
2018-05-15T09:02:36.556Z,986.45
2018-05-15T09:03:36.730Z,986.52
2018-05-15T09:04:36.913Z,986.46
2018-05-15T09:05:37.089Z,986.50
2018-05-15T09:06:37.258Z,986.49
2018-05-15T09:07:37.438Z,986.50
2018-05-15T09:08:37.619Z,986.51
2018-05-15T09:09:37.803Z,986.59
2018-05-15T09:10:37.984Z,986.55
2018-05-15T09:11:38.161Z,986.54
2018-05-15T09:12:38.339Z,986.60
2018-05-15T09:13:38.525Z,986.56
2018-05-15T09:14:38.699Z,986.58
2018-05-15T09:15:38.880Z,986.63
2018-05-15T09:16:39.048Z,986.60
2018-05-15T09:17:42.079Z,986.68
2018-05-15T09:18:39.382Z,986.52
2018-05-15T09:19:39.566Z,986.63
2018-05-15T09:20:42.566Z,986.59
2018-05-15T09:21:39.877Z,986.60
2018-05-15T09:22:40.055Z,986.59
2018-05-15T09:23:40.237Z,986.65
2018-05-15T09:24:40.418Z,986.60
2018-05-15T09:25:40.607Z,986.60
2018-05-15T09:26:40.786Z,986.70
2018-05-15T09:27:40.979Z,986.66
2018-05-15T09:28:41.150Z,986.67
2018-05-15T09:30:34.424Z,986.65
2018-05-15T09:31:34.621Z,986.66
2018-05-15T09:32:34.796Z,986.69
2018-05-15T09:33:34.971Z,986.64
2018-05-15T09:34:35.151Z,986.59
2018-05-15T09:35:35.342Z,986.56
2018-05-15T09:36:35.523Z,986.67
2018-05-15T09:37:35.712Z,986.58
2018-05-15T09:38:35.884Z,986.66
2018-05-15T09:39:36.079Z,986.64
2018-05-15T09:40:36.257Z,986.65
2018-05-15T09:41:36.432Z,986.67
2018-05-15T09:42:36.623Z,986.47
2018-05-15T09:43:36.835Z,986.64
2018-05-15T09:44:36.992Z,986.61
2018-05-15T09:45:37.175Z,986.64
2018-05-15T09:46:37.359Z,986.69
2018-05-15T09:47:37.543Z,986.68
2018-05-15T09:48:37.730Z,986.59
2018-05-15T09:49:37.921Z,986.60
2018-05-15T09:50:38.108Z,986.66
2018-05-15T09:51:38.289Z,986.67
2018-05-15T09:52:38.475Z,986.68
2018-05-15T09:53:38.668Z,986.65
2018-05-15T09:54:38.850Z,986.64
2018-05-15T09:55:39.085Z,986.60
2018-05-15T09:56:39.269Z,986.61
2018-05-15T09:57:39.449Z,986.67
2018-05-15T09:58:39.642Z,986.77
2018-05-15T09:59:39.829Z,986.62
2018-05-15T10:00:40.009Z,986.74
2018-05-15T10:01:40.196Z,986.76
2018-05-15T10:02:40.383Z,986.75
2018-05-15T10:03:40.569Z,986.59
2018-05-15T10:04:40.745Z,986.61
2018-05-15T10:05:40.942Z,986.66
2018-05-15T10:06:41.154Z,986.70
2018-05-15T10:07:41.397Z,986.67
2018-05-15T10:08:41.514Z,986.75
2018-05-15T10:09:41.702Z,986.92
2018-05-15T10:10:41.889Z,986.78
2018-05-15T10:11:42.068Z,986.87
2018-05-15T10:12:42.255Z,986.84
2018-05-15T10:13:42.437Z,986.63
2018-05-15T10:14:42.621Z,986.75
2018-05-15T10:15:42.809Z,986.75
2018-05-15T10:16:43.002Z,986.83
2018-05-15T10:17:43.187Z,986.91
2018-05-15T10:18:43.368Z,986.93
2018-05-15T10:19:43.554Z,986.68
2018-05-15T10:20:43.799Z,986.73
2018-05-15T10:21:43.921Z,986.53
2018-05-15T10:22:44.112Z,986.47
2018-05-15T10:23:44.291Z,986.45
2018-05-15T10:24:44.476Z,986.52
2018-05-15T10:25:44.672Z,986.51
2018-05-15T10:26:44.860Z,986.59
2018-05-15T10:27:45.059Z,986.64
2018-05-15T10:28:45.237Z,986.59
2018-05-15T10:29:45.510Z,986.54
2018-05-15T10:30:45.612Z,986.51
2018-05-15T10:31:45.788Z,986.35
2018-05-15T10:32:46.398Z,986.36
2018-05-15T10:33:46.204Z,986.41
2018-05-15T10:34:46.389Z,986.49
2018-05-15T10:35:46.566Z,986.58
2018-05-15T10:36:46.761Z,986.69
2018-05-15T10:37:46.937Z,986.78
2018-05-15T10:38:47.123Z,986.72
2018-05-15T10:39:47.303Z,986.53
2018-05-15T10:40:47.485Z,986.53
2018-05-15T10:41:47.670Z,986.45
2018-05-15T10:42:47.845Z,986.34
2018-05-15T10:43:48.084Z,986.28
2018-05-15T10:44:48.229Z,986.26
2018-05-15T10:45:48.406Z,986.20
2018-05-15T10:46:48.593Z,986.22
2018-05-15T10:47:48.771Z,986.14
2018-05-15T10:48:48.960Z,986.16
2018-05-15T10:49:49.146Z,986.15
2018-05-15T10:50:49.393Z,986.15
2018-05-15T10:51:49.522Z,986.14
2018-05-15T10:52:49.699Z,986.25
2018-05-15T10:53:49.878Z,986.16
2018-05-15T10:54:50.477Z,986.10
2018-05-15T10:55:50.287Z,986.18
2018-05-15T10:56:50.474Z,986.19
2018-05-15T10:57:50.653Z,986.38
2018-05-15T10:58:50.836Z,986.87
2018-05-15T10:59:51.015Z,986.88
2018-05-15T11:00:51.198Z,986.81
2018-05-15T11:01:51.380Z,986.35
2018-05-15T11:02:51.559Z,986.93
2018-05-15T11:03:51.739Z,986.34
2018-05-15T11:04:51.930Z,986.30
2018-05-15T11:05:52.125Z,986.74
2018-05-15T11:06:52.286Z,986.32
2018-05-15T11:07:52.454Z,986.28
2018-05-15T11:08:52.652Z,986.33
2018-05-15T11:09:52.822Z,986.31
2018-05-15T11:10:53.023Z,986.86
2018-05-15T11:11:53.202Z,986.40
2018-05-15T11:12:53.438Z,986.24
2018-05-15T11:13:53.572Z,986.12
2018-05-15T11:14:53.748Z,986.06
2018-05-15T11:15:53.935Z,985.98
2018-05-15T11:16:54.120Z,986.05
2018-05-15T11:17:54.293Z,986.06
2018-05-15T11:18:54.478Z,986.08
2018-05-15T11:19:54.732Z,986.03
2018-05-15T11:20:54.844Z,986.04
2018-05-15T11:21:55.028Z,985.92
2018-05-15T11:22:55.203Z,985.82
2018-05-15T11:23:55.378Z,985.83
2018-05-15T11:24:55.560Z,985.80
2018-05-15T11:25:55.739Z,985.79
2018-05-15T11:26:55.918Z,985.81
2018-05-15T11:27:56.093Z,985.78
2018-05-15T11:28:56.272Z,985.80
2018-05-15T11:29:56.458Z,985.77
2018-05-15T11:30:56.631Z,985.76
2018-05-15T11:31:56.808Z,985.77
2018-05-15T11:32:56.989Z,985.79
2018-05-15T11:33:57.173Z,985.72
2018-05-15T11:34:57.348Z,985.75
2018-05-15T11:35:57.614Z,985.76
2018-05-15T11:36:57.701Z,985.78
2018-05-15T11:37:57.877Z,985.80
2018-05-15T11:38:58.053Z,985.82
2018-05-15T11:39:58.226Z,985.79
2018-05-15T11:40:58.411Z,985.75
2018-05-15T11:41:58.587Z,985.80
2018-05-15T11:42:58.769Z,985.79
2018-05-15T11:43:58.981Z,985.77
2018-05-15T11:44:59.163Z,985.77
2018-05-15T11:45:59.341Z,985.72
2018-05-15T11:46:59.531Z,985.72
2018-05-15T11:47:59.849Z,985.73
2018-05-15T11:49:00.401Z,985.73
2018-05-15T11:50:53.806Z,985.67
2018-05-15T11:51:54.183Z,985.72
2018-05-15T11:52:54.128Z,985.67
2018-05-15T11:53:53.704Z,985.68
2018-05-15T11:54:53.877Z,985.66
2018-05-15T11:55:54.212Z,985.67
2018-05-15T11:56:54.256Z,985.73
2018-05-15T11:57:54.448Z,985.73
2018-05-15T11:58:54.601Z,985.72
2018-05-15T11:59:54.840Z,985.70
2018-05-15T12:00:54.956Z,985.72
2018-05-15T12:01:55.139Z,985.73
2018-05-15T12:02:55.309Z,985.83
2018-05-15T12:03:55.509Z,985.90
2018-05-15T12:04:55.653Z,986.01
2018-05-15T12:05:56.636Z,986.26
2018-05-15T12:06:56.027Z,986.79
2018-05-15T12:07:56.203Z,986.94
2018-05-15T12:08:56.428Z,986.21
2018-05-15T12:09:56.606Z,986.07
2018-05-15T12:10:56.780Z,986.94
2018-05-15T12:11:56.973Z,986.23
2018-05-15T12:12:57.202Z,986.04
2018-05-15T12:13:57.328Z,985.90
2018-05-15T12:14:57.512Z,985.79
2018-05-15T12:15:57.694Z,985.72
2018-05-15T12:16:57.870Z,985.65
2018-05-15T12:17:58.057Z,985.61
2018-05-15T12:18:58.239Z,985.57
2018-05-15T12:19:58.787Z,985.50
2018-05-15T12:20:58.602Z,985.53
2018-05-15T12:21:58.784Z,985.41
2018-05-15T12:22:58.966Z,985.42
2018-05-15T12:23:59.142Z,985.51
2018-05-15T12:24:59.327Z,985.62
2018-05-15T12:25:59.575Z,985.53
2018-05-15T12:26:59.681Z,985.48
2018-05-15T12:27:59.956Z,985.41
2018-05-15T12:29:00.025Z,985.47
2018-05-15T12:30:00.214Z,985.38
2018-05-15T12:31:00.405Z,985.39
2018-05-15T12:32:00.573Z,985.42